createdAt,value
2022-07-28T00:01:12.220Z,101409.44
2022-07-28T00:05:15.229Z,101404.97
2022-07-28T00:09:16.693Z,101407.97
2022-07-28T00:13:19.660Z,101407.47
2022-07-28T00:17:21.205Z,101405.56
2022-07-28T00:21:24.298Z,101407.56
2022-07-28T00:25:25.883Z,101412.16
2022-07-28T00:29:49.230Z,101402.00
2022-07-28T00:33:49.154Z,101402.53
2022-07-28T00:37:50.763Z,101406.59
2022-07-28T00:41:53.066Z,101407.63
2022-07-28T00:45:54.604Z,101407.25
2022-07-28T00:49:56.196Z,101408.69
2022-07-28T00:53:58.067Z,101410.22
2022-07-28T00:58:00.651Z,101407.38
2022-07-28T01:02:03.408Z,101407.13
2022-07-28T01:06:21.058Z,101409.91
2022-07-28T01:10:45.102Z,101411.34
2022-07-28T01:14:56.406Z,101405.56
2022-07-28T01:19:04.991Z,101410.66
2022-07-28T01:23:06.463Z,101409.78
2022-07-28T01:27:34.587Z,101413.69
2022-07-28T01:31:54.041Z,101410.13
2022-07-28T01:36:02.495Z,101406.91
2022-07-28T01:40:07.627Z,101409.56
2022-07-28T01:44:16.683Z,101410.63
2022-07-28T01:48:20.890Z,101409.56
2022-07-28T01:52:25.099Z,101408.19
2022-07-28T01:56:30.868Z,101406.44
2022-07-28T02:00:34.134Z,101405.66
2022-07-28T02:04:39.120Z,101413.41
2022-07-28T02:08:41.575Z,101406.59
2022-07-28T02:12:46.591Z,101402.75
2022-07-28T02:16:58.798Z,101403.81
2022-07-28T02:21:02.605Z,101406.59
2022-07-28T02:25:05.060Z,101405.84
2022-07-28T02:29:33.619Z,101401.69
2022-07-28T02:34:00.409Z,101402.72
2022-07-28T02:38:04.820Z,101406.53
2022-07-28T02:42:09.656Z,101415.41
2022-07-28T02:46:14.799Z,101409.53
2022-07-28T02:50:21.824Z,101413.47
2022-07-28T02:54:26.328Z,101417.84
2022-07-28T02:58:28.392Z,101424.56
2022-07-28T03:02:33.412Z,101423.53
2022-07-28T03:06:35.047Z,101419.94
2022-07-28T03:10:37.119Z,101426.97
2022-07-28T03:14:38.927Z,101433.31
2022-07-28T03:18:40.487Z,101438.88
2022-07-28T03:22:43.562Z,101442.09
2022-07-28T03:26:53.192Z,101444.56
2022-07-28T03:30:58.722Z,101455.16
2022-07-28T03:35:00.658Z,101454.13
2022-07-28T03:39:04.705Z,101451.38
2022-07-28T03:43:09.610Z,101450.44
2022-07-28T03:47:11.375Z,101456.44
2022-07-28T03:51:13.300Z,101460.78
2022-07-28T03:55:15.441Z,101462.31
2022-07-28T03:59:17.919Z,101472.63
2022-07-28T04:03:35.236Z,101459.78
2022-07-28T04:07:43.041Z,101479.88
2022-07-28T04:11:44.564Z,101472.06
2022-07-28T04:15:46.067Z,101476.09
2022-07-28T04:19:47.596Z,101482.59
2022-07-28T04:23:54.503Z,101475.56
2022-07-28T04:27:58.880Z,101467.88
2022-07-28T04:32:00.350Z,101474.09
2022-07-28T04:36:02.317Z,101470.53
2022-07-28T04:40:05.455Z,101470.88
2022-07-28T04:44:07.117Z,101477.47
2022-07-28T04:48:08.629Z,101472.53
2022-07-28T04:52:10.111Z,101484.47
2022-07-28T04:56:11.568Z,101480.47
2022-07-28T05:00:14.864Z,101478.31
2022-07-28T05:04:17.234Z,101467.34
2022-07-28T05:08:19.213Z,101480.59
2022-07-28T05:12:20.685Z,101479.34
2022-07-28T05:16:22.195Z,101483.75
2022-07-28T05:20:23.746Z,101483.69
2022-07-28T05:24:25.193Z,101481.59
2022-07-28T05:28:26.993Z,101484.63
2022-07-28T05:32:28.555Z,101497.88
2022-07-28T05:36:30.056Z,101499.97
2022-07-28T05:40:31.656Z,101491.00
2022-07-28T05:44:37.933Z,101503.22
2022-07-28T05:48:39.848Z,101504.94
2022-07-28T05:52:41.468Z,101514.91
2022-07-28T05:56:45.904Z,101520.47
2022-07-28T06:00:51.495Z,101515.13
2022-07-28T06:04:52.975Z,101519.81
2022-07-28T06:08:54.426Z,101516.78
2022-07-28T06:12:57.779Z,101512.84
2022-07-28T06:16:59.336Z,101522.53
2022-07-28T06:21:01.479Z,101519.81
2022-07-28T06:25:03.589Z,101523.13
2022-07-28T06:29:05.100Z,101522.25
2022-07-28T06:33:07.718Z,101517.97
2022-07-28T06:37:09.196Z,101519.69
2022-07-28T06:41:10.694Z,101522.25
2022-07-28T06:45:20.768Z,101521.16
2022-07-28T06:49:23.143Z,101519.69
2022-07-28T06:53:24.953Z,101518.13
2022-07-28T06:57:33.653Z,101517.13
2022-07-28T07:01:35.424Z,101519.66
2022-07-28T07:05:37.341Z,101520.72
2022-07-28T07:09:38.960Z,101513.34
2022-07-28T07:13:40.473Z,101520.25
2022-07-28T07:17:42.407Z,101512.38
2022-07-28T07:21:44.057Z,101511.44
2022-07-28T07:25:45.718Z,101514.94
2022-07-28T07:29:47.174Z,101518.09
2022-07-28T07:33:48.612Z,101510.72
2022-07-28T07:37:50.073Z,101514.69
2022-07-28T07:41:51.512Z,101524.13
2022-07-28T07:45:53.323Z,101516.13
2022-07-28T07:49:54.888Z,101519.50
2022-07-28T07:53:56.324Z,101523.94
2022-07-28T07:57:58.279Z,101521.81
2022-07-28T08:02:00.651Z,101528.47
2022-07-28T08:06:02.382Z,101527.81
2022-07-28T08:10:04.600Z,101520.38
2022-07-28T08:14:06.127Z,101524.06
2022-07-28T08:18:07.635Z,101515.00
2022-07-28T08:22:09.126Z,101520.66
2022-07-28T08:26:10.678Z,101521.22
2022-07-28T08:30:12.971Z,101523.97
2022-07-28T08:34:26.160Z,101523.69
2022-07-28T08:38:33.375Z,101525.28
2022-07-28T08:42:43.561Z,101532.84
2022-07-28T08:46:49.080Z,101531.31
2022-07-28T08:50:51.615Z,101532.16
2022-07-28T08:54:55.092Z,101528.09
2022-07-28T08:58:57.706Z,101529.72
2022-07-28T09:03:03.322Z,101534.56
2022-07-28T09:07:06.330Z,101526.50
2022-07-28T09:11:08.350Z,101533.31
2022-07-28T09:15:11.842Z,101528.09
2022-07-28T09:19:13.285Z,101524.88
2022-07-28T09:23:42.026Z,101529.72
2022-07-28T09:27:45.421Z,101529.69
2022-07-28T09:31:55.835Z,101521.06
2022-07-28T09:35:59.375Z,101530.50
2022-07-28T09:40:10.863Z,101522.34
2022-07-28T09:44:20.352Z,101527.25
2022-07-28T09:48:21.882Z,101525.56
2022-07-28T09:52:31.191Z,101526.81
2022-07-28T09:56:32.838Z,101523.66
2022-07-28T10:00:34.842Z,101518.03
2022-07-28T10:04:39.818Z,101519.72
2022-07-28T10:08:45.081Z,101515.19
2022-07-28T10:12:46.842Z,101511.38
2022-07-28T10:16:53.290Z,101511.91
2022-07-28T10:20:55.534Z,101502.88
2022-07-28T10:24:58.539Z,101512.41
2022-07-28T10:29:04.273Z,101506.66
2022-07-28T10:33:14.166Z,101506.00
2022-07-28T10:37:22.520Z,101509.56
2022-07-28T10:41:29.944Z,101496.38
2022-07-28T10:45:55.022Z,101494.97
2022-07-28T10:49:53.880Z,101498.03
2022-07-28T10:54:17.602Z,101500.47
2022-07-28T10:58:49.286Z,101497.47
2022-07-28T11:02:58.879Z,101495.75
2022-07-28T11:07:13.041Z,101503.16
2022-07-28T11:11:14.704Z,101489.84
2022-07-28T11:15:33.217Z,101486.41
2022-07-28T11:20:00.899Z,101485.22
2022-07-28T11:24:05.710Z,101492.56
2022-07-28T11:28:07.436Z,101480.69
2022-07-28T11:32:09.007Z,101476.56
2022-07-28T11:36:10.460Z,101481.56
2022-07-28T11:40:31.486Z,101482.75
2022-07-28T11:44:33.461Z,101481.72
2022-07-28T11:48:35.548Z,101470.94
2022-07-28T11:52:37.373Z,101466.84
2022-07-28T11:56:39.909Z,101471.66
2022-07-28T12:00:41.401Z,101461.66
2022-07-28T12:04:43.313Z,101467.63
2022-07-28T12:08:56.771Z,101456.28
2022-07-28T12:13:01.336Z,101455.09
2022-07-28T12:17:02.880Z,101455.50
2022-07-28T12:21:06.593Z,101453.13
2022-07-28T12:25:13.416Z,101446.38
2022-07-28T12:29:15.636Z,101443.31
2022-07-28T12:33:27.598Z,101439.84
2022-07-28T12:37:31.364Z,101445.31
2022-07-28T12:41:38.177Z,101438.28
2022-07-28T12:45:46.437Z,101432.84
2022-07-28T12:49:56.291Z,101432.16
2022-07-28T12:54:00.121Z,101427.50
2022-07-28T12:58:02.774Z,101419.44
2022-07-28T13:02:07.650Z,101424.59
2022-07-28T13:06:10.921Z,101417.94
2022-07-28T13:10:13.062Z,101413.44
2022-07-28T13:14:14.815Z,101405.44
2022-07-28T13:18:16.669Z,101404.22
2022-07-28T13:22:29.014Z,101404.50
2022-07-28T13:26:31.707Z,101411.63
2022-07-28T13:30:33.155Z,101400.28
2022-07-28T13:34:34.871Z,101394.88
2022-07-28T13:38:36.383Z,101393.31
2022-07-28T13:42:37.818Z,101399.88
2022-07-28T13:46:47.115Z,101392.72
2022-07-28T13:50:51.504Z,101389.88
2022-07-28T13:54:53.024Z,101392.00
2022-07-28T13:58:54.495Z,101384.25
2022-07-28T14:02:56.798Z,101387.09
2022-07-28T14:06:59.389Z,101382.22
2022-07-28T14:11:01.981Z,101376.78
2022-07-28T14:15:05.277Z,101379.50
2022-07-28T14:19:06.757Z,101368.53
2022-07-28T14:23:08.260Z,101367.38
2022-07-28T14:27:12.325Z,101362.53
2022-07-28T14:31:13.856Z,101351.69
2022-07-28T14:35:15.908Z,101353.09
2022-07-28T14:39:17.481Z,101353.84
2022-07-28T14:43:18.952Z,101354.88
2022-07-28T14:47:22.232Z,101347.22
2022-07-28T14:51:24.909Z,101334.94
2022-07-28T14:55:26.552Z,101345.50
2022-07-28T14:59:31.079Z,101337.84
2022-07-28T15:03:36.464Z,101335.47
2022-07-28T15:07:38.226Z,101339.03
2022-07-28T15:11:41.271Z,101335.78
2022-07-28T15:15:44.777Z,101333.84
2022-07-28T15:19:47.492Z,101331.56
2022-07-28T15:23:49.009Z,101336.13
2022-07-28T15:27:50.609Z,101319.81
2022-07-28T15:31:52.548Z,101325.16
2022-07-28T15:35:58.764Z,101319.66
2022-07-28T15:40:01.200Z,101316.84
2022-07-28T15:44:02.768Z,101317.75
2022-07-28T15:48:04.671Z,101319.03
2022-07-28T15:52:09.277Z,101313.72
2022-07-28T15:56:13.093Z,101317.63
2022-07-28T16:00:15.096Z,101317.94
2022-07-28T16:04:16.930Z,101312.81
2022-07-28T16:08:23.751Z,101315.53
2022-07-28T16:12:25.838Z,101313.88
2022-07-28T16:16:27.561Z,101314.59
2022-07-28T16:20:30.311Z,101301.78
2022-07-28T16:24:31.916Z,101306.66
2022-07-28T16:28:33.588Z,101308.84
2022-07-28T16:32:35.097Z,101308.31
2022-07-28T16:36:38.057Z,101302.31
2022-07-28T16:40:39.855Z,101308.31
2022-07-28T16:44:42.669Z,101304.97
2022-07-28T16:48:44.254Z,101313.97
2022-07-28T16:52:45.865Z,101313.75
2022-07-28T16:56:47.554Z,101307.25
2022-07-28T17:00:50.383Z,101299.84
2022-07-28T17:04:51.977Z,101301.38
2022-07-28T17:08:53.569Z,101301.63
2022-07-28T17:12:55.186Z,101305.19
2022-07-28T17:16:57.470Z,101308.06
2022-07-28T17:20:59.212Z,101309.09
2022-07-28T17:25:00.768Z,101310.13
2022-07-28T17:29:02.454Z,101314.84
2022-07-28T17:33:08.629Z,101310.81
2022-07-28T17:37:10.516Z,101318.69
2022-07-28T17:41:12.097Z,101317.91
2022-07-28T17:45:13.696Z,101317.13
2022-07-28T17:49:16.516Z,101318.00
2022-07-28T17:53:20.241Z,101318.28
2022-07-28T17:57:21.714Z,101312.09
2022-07-28T18:01:25.266Z,101305.84
2022-07-28T18:05:26.972Z,101306.59
2022-07-28T18:09:28.473Z,101306.06
2022-07-28T18:13:30.032Z,101302.09
2022-07-28T18:17:33.006Z,101308.44
2022-07-28T18:21:35.027Z,101306.38
2022-07-28T18:25:42.194Z,101304.81
2022-07-28T18:29:46.744Z,101308.28
2022-07-28T18:33:49.784Z,101304.00
2022-07-28T18:37:51.782Z,101306.72
2022-07-28T18:41:56.342Z,101299.31
2022-07-28T18:45:57.967Z,101300.44
2022-07-28T18:49:59.508Z,101301.19
2022-07-28T18:54:01.714Z,101309.06
2022-07-28T18:58:03.240Z,101306.31
2022-07-28T19:02:04.844Z,101300.03
2022-07-28T19:06:06.453Z,101302.72
2022-07-28T19:10:09.634Z,101304.00
2022-07-28T19:14:12.193Z,101309.16
2022-07-28T19:18:13.982Z,101305.66
2022-07-28T19:22:15.986Z,101314.72
2022-07-28T19:26:17.535Z,101305.28
2022-07-28T19:30:19.309Z,101313.16
2022-07-28T19:34:20.823Z,101313.25
2022-07-28T19:38:22.382Z,101309.03
2022-07-28T19:42:23.892Z,101305.19
2022-07-28T19:46:26.350Z,101304.41
2022-07-28T19:50:28.201Z,101302.53
2022-07-28T19:54:29.942Z,101313.06
2022-07-28T19:58:31.454Z,101316.19
2022-07-28T20:02:32.900Z,101323.31
2022-07-28T20:06:34.706Z,101327.41
2022-07-28T20:10:36.493Z,101328.19
2022-07-28T20:14:38.014Z,101339.16
2022-07-28T20:18:39.719Z,101341.97
2022-07-28T20:22:41.836Z,101337.13
2022-07-28T20:26:43.440Z,101340.72
2022-07-28T20:30:45.097Z,101341.59
2022-07-28T20:34:46.751Z,101339.31
2022-07-28T20:38:48.385Z,101342.88
2022-07-28T20:42:53.332Z,101344.13
2022-07-28T20:46:58.403Z,101349.78
2022-07-28T20:51:00.240Z,101352.94
2022-07-28T20:55:01.829Z,101352.59
2022-07-28T20:59:06.873Z,101345.34
2022-07-28T21:03:08.510Z,101349.03
2022-07-28T21:07:10.066Z,101346.97
2022-07-28T21:11:11.569Z,101354.22
2022-07-28T21:15:13.154Z,101357.84
2022-07-28T21:19:14.603Z,101363.41
2022-07-28T21:23:17.492Z,101359.41
2022-07-28T21:27:19.557Z,101360.97
2022-07-28T21:31:21.113Z,101367.44
2022-07-28T21:35:22.602Z,101367.91
2022-07-28T21:39:24.083Z,101368.28
2022-07-28T21:43:25.647Z,101359.41
2022-07-28T21:47:27.169Z,101366.25
2022-07-28T21:51:30.249Z,101371.78
2022-07-28T21:55:31.726Z,101370.97
2022-07-28T21:59:33.179Z,101372.66
2022-07-28T22:03:37.234Z,101369.03
2022-07-28T22:07:38.679Z,101368.22
2022-07-28T22:11:40.141Z,101374.56
2022-07-28T22:15:41.610Z,101374.22
2022-07-28T22:19:43.047Z,101388.31
2022-07-28T22:23:44.623Z,101387.47
2022-07-28T22:27:46.043Z,101392.22
2022-07-28T22:31:47.589Z,101393.91
2022-07-28T22:35:49.156Z,101403.88
2022-07-28T22:39:50.639Z,101403.34
2022-07-28T22:43:52.226Z,101401.72
2022-07-28T22:47:53.980Z,101408.84
2022-07-28T22:51:55.430Z,101406.16
2022-07-28T22:55:56.962Z,101400.09
2022-07-28T22:59:58.520Z,101410.56
2022-07-28T23:04:00.156Z,101418.19
2022-07-28T23:08:01.748Z,101419.69
2022-07-28T23:12:03.466Z,101400.63
2022-07-28T23:16:08.243Z,101424.63
2022-07-28T23:20:10.349Z,101417.91
2022-07-28T23:24:11.858Z,101421.72
2022-07-28T23:28:13.530Z,101417.31
2022-07-28T23:32:17.148Z,101412.97
2022-07-28T23:36:26.476Z,101417.34
2022-07-28T23:40:29.088Z,101413.56
2022-07-28T23:44:30.598Z,101412.59
2022-07-28T23:48:32.043Z,101403.81
2022-07-28T23:52:33.486Z,101402.25
2022-07-28T23:56:34.920Z,101406.59
